createdAt,value
2022-09-23T00:02:10.945Z,56.59
2022-09-23T00:04:39.183Z,57.89
2022-09-23T00:07:07.485Z,59.16
2022-09-23T00:09:35.603Z,60.24
2022-09-23T00:12:08.661Z,64.91
2022-09-23T00:14:39.161Z,66.77
2022-09-23T00:17:07.407Z,62.17
2022-09-23T00:19:37.988Z,55.82
2022-09-23T00:22:07.379Z,54.34
2022-09-23T00:24:35.458Z,55.87
2022-09-23T00:27:03.938Z,58.24
2022-09-23T00:29:33.173Z,59.22
2022-09-23T00:32:01.517Z,59.79
2022-09-23T00:34:29.900Z,60.37
2022-09-23T00:36:57.967Z,65.80
2022-09-23T00:39:29.067Z,67.51
2022-09-23T00:41:57.195Z,65.43
2022-09-23T00:44:45.440Z,63.15
2022-09-23T00:47:21.092Z,59.75
2022-09-23T00:50:01.975Z,54.48
2022-09-23T00:52:32.299Z,54.63
2022-09-23T00:55:02.896Z,56.09
2022-09-23T00:57:35.204Z,57.10
2022-09-23T01:00:06.038Z,57.82
2022-09-23T01:02:34.718Z,59.21
2022-09-23T01:05:06.088Z,65.00
2022-09-23T01:07:34.949Z,67.69
2022-09-23T01:10:04.387Z,61.94
2022-09-23T01:12:37.968Z,55.97
2022-09-23T01:15:15.317Z,55.01
2022-09-23T01:18:00.249Z,56.14
2022-09-23T01:20:59.513Z,57.15
2022-09-23T01:24:06.046Z,57.68
2022-09-23T01:26:56.674Z,58.55
2022-09-23T01:29:49.800Z,59.67
2022-09-23T01:32:28.273Z,66.84
2022-09-23T01:35:14.923Z,67.21
2022-09-23T01:37:48.825Z,61.61
2022-09-23T01:40:51.449Z,56.49
2022-09-23T01:43:41.711Z,55.81
2022-09-23T01:46:18.123Z,57.25
2022-09-23T01:49:01.243Z,58.58
2022-09-23T01:51:37.790Z,59.11
2022-09-23T01:54:20.912Z,60.15
2022-09-23T01:57:05.738Z,66.10
2022-09-23T01:59:49.632Z,66.80
2022-09-23T02:02:33.710Z,61.56
2022-09-23T02:05:14.556Z,55.60
2022-09-23T02:08:01.475Z,55.27
2022-09-23T02:10:53.593Z,57.14
2022-09-23T02:13:47.693Z,58.98
2022-09-23T02:16:25.643Z,65.66
2022-09-23T02:18:58.494Z,65.80
2022-09-23T02:21:34.141Z,60.82
2022-09-23T02:24:29.656Z,55.78
2022-09-23T02:27:13.254Z,54.86
2022-09-23T02:30:27.286Z,56.62
2022-09-23T02:33:35.396Z,57.69
2022-09-23T02:36:22.386Z,59.17
2022-09-23T02:38:58.446Z,59.89
2022-09-23T02:41:56.384Z,66.38
2022-09-23T02:44:28.490Z,66.34
2022-09-23T02:46:56.980Z,60.72
2022-09-23T02:49:28.225Z,55.74
2022-09-23T02:52:00.189Z,54.79
2022-09-23T02:54:29.488Z,55.74
2022-09-23T02:57:01.279Z,56.55
2022-09-23T02:59:30.750Z,57.85
2022-09-23T03:02:17.512Z,58.64
2022-09-23T03:05:01.627Z,59.53
2022-09-23T03:08:04.406Z,66.57
2022-09-23T03:10:46.597Z,66.71
2022-09-23T03:13:29.557Z,61.88
2022-09-23T03:16:18.776Z,57.01
2022-09-23T03:18:58.048Z,56.05
2022-09-23T03:21:36.563Z,57.60
2022-09-23T03:24:09.391Z,58.33
2022-09-23T03:26:40.436Z,59.24
2022-09-23T03:29:11.442Z,60.35
2022-09-23T03:31:42.493Z,65.21
2022-09-23T03:34:20.286Z,67.25
2022-09-23T03:37:02.899Z,63.03
2022-09-23T03:39:42.138Z,58.05
2022-09-23T03:42:25.535Z,57.26
2022-09-23T03:44:57.633Z,58.28
2022-09-23T03:47:28.581Z,59.81
2022-09-23T03:49:59.827Z,60.67
2022-09-23T03:52:28.627Z,65.42
2022-09-23T03:54:57.936Z,67.86
2022-09-23T03:57:26.205Z,63.04
2022-09-23T03:59:54.305Z,57.01
2022-09-23T04:02:22.531Z,56.37
2022-09-23T04:04:50.877Z,57.34
2022-09-23T04:07:19.526Z,58.64
2022-09-23T04:09:48.006Z,59.67
2022-09-23T04:12:17.003Z,60.37
2022-09-23T04:14:45.897Z,65.69
2022-09-23T04:17:14.376Z,66.43
2022-09-23T04:19:42.566Z,60.99
2022-09-23T04:22:11.550Z,54.97
2022-09-23T04:24:40.143Z,53.82
2022-09-23T04:27:08.422Z,55.20
2022-09-23T04:29:37.105Z,56.63
2022-09-23T04:32:05.393Z,57.44
2022-09-23T04:34:34.101Z,58.35
2022-09-23T04:37:04.204Z,59.46
2022-09-23T04:39:32.383Z,65.36
2022-09-23T04:42:00.559Z,67.09
2022-09-23T04:44:30.978Z,61.81
2022-09-23T04:46:59.477Z,55.62
2022-09-23T04:49:27.624Z,54.93
2022-09-23T04:51:56.549Z,56.22
2022-09-23T04:54:24.924Z,57.72
2022-09-23T04:56:55.762Z,58.59
2022-09-23T04:59:25.174Z,59.80
2022-09-23T05:01:54.683Z,65.39
2022-09-23T05:04:23.054Z,67.18
2022-09-23T05:06:51.225Z,62.17
2022-09-23T05:09:19.607Z,56.82
2022-09-23T05:11:47.793Z,55.65
2022-09-23T05:14:19.084Z,57.17
2022-09-23T05:16:50.543Z,58.43
2022-09-23T05:19:19.307Z,59.51
2022-09-23T05:21:52.347Z,64.55
2022-09-23T05:24:21.791Z,67.42
2022-09-23T05:26:49.894Z,63.55
2022-09-23T05:29:18.239Z,59.81
2022-09-23T05:31:46.754Z,55.57
2022-09-23T05:34:14.997Z,55.33
2022-09-23T05:36:43.514Z,57.05
2022-09-23T05:39:11.654Z,58.27
2022-09-23T05:41:41.678Z,59.03
2022-09-23T05:44:11.599Z,60.17
2022-09-23T05:46:40.327Z,65.25
2022-09-23T05:49:08.928Z,67.83
2022-09-23T05:51:38.304Z,63.65
2022-09-23T05:54:08.862Z,60.82
2022-09-23T05:56:38.223Z,57.52
2022-09-23T05:59:07.060Z,57.57
2022-09-23T06:01:36.958Z,58.91
2022-09-23T06:04:06.859Z,60.24
2022-09-23T06:06:39.128Z,64.85
2022-09-23T06:09:13.655Z,66.61
2022-09-23T06:11:42.315Z,61.92
2022-09-23T06:16:57.631Z,56.64
2022-09-23T06:19:29.210Z,58.30
2022-09-23T06:22:01.269Z,59.42
2022-09-23T06:24:31.536Z,60.45
2022-09-23T06:27:01.983Z,64.74
2022-09-23T06:29:32.446Z,67.15
2022-09-23T06:32:01.308Z,63.13
2022-09-23T06:34:41.117Z,60.76
2022-09-23T06:37:20.216Z,58.23
2022-09-23T06:39:49.427Z,57.41
2022-09-23T06:42:18.099Z,58.04
2022-09-23T06:44:49.366Z,58.60
2022-09-23T06:47:18.043Z,60.22
2022-09-23T06:49:46.747Z,64.93
2022-09-23T06:52:16.165Z,66.92
2022-09-23T06:54:45.362Z,63.04
2022-09-23T06:57:14.645Z,60.41
2022-09-23T06:59:43.030Z,56.30
2022-09-23T07:02:12.543Z,55.54
2022-09-23T07:04:42.754Z,55.89
2022-09-23T07:07:11.782Z,56.33
2022-09-23T07:09:40.559Z,58.49
2022-09-23T07:12:08.932Z,58.97
2022-09-23T07:14:40.182Z,59.37
2022-09-23T07:17:08.865Z,63.62
2022-09-23T07:19:38.106Z,63.87
2022-09-23T07:22:06.965Z,58.42
2022-09-23T07:24:35.249Z,55.17
2022-09-23T07:27:06.652Z,55.53
2022-09-23T07:29:47.036Z,55.45
2022-09-23T07:32:22.288Z,56.07
2022-09-23T07:34:52.255Z,56.78
2022-09-23T07:37:22.182Z,57.46
2022-09-23T07:39:51.985Z,58.24
2022-09-23T07:42:21.064Z,59.56
2022-09-23T07:44:54.052Z,60.74
2022-09-23T07:47:23.876Z,63.94
2022-09-23T07:49:54.950Z,64.58
2022-09-23T07:52:24.948Z,61.94
2022-09-23T07:54:54.640Z,57.26
2022-09-23T07:57:24.686Z,54.55
2022-09-23T07:59:53.717Z,54.67
2022-09-23T08:02:22.276Z,55.83
2022-09-23T08:04:50.926Z,56.83
2022-09-23T08:07:19.819Z,57.15
2022-09-23T08:09:49.153Z,58.59
2022-09-23T08:12:20.267Z,59.15
2022-09-23T08:14:51.459Z,60.51
2022-09-23T08:17:20.794Z,62.33
2022-09-23T08:19:50.282Z,62.94
2022-09-23T08:22:20.449Z,58.96
2022-09-23T08:24:49.737Z,55.35
2022-09-23T08:27:19.757Z,55.29
2022-09-23T08:29:50.212Z,56.82
2022-09-23T08:32:18.837Z,56.72
2022-09-23T08:34:47.844Z,55.88
2022-09-23T08:37:18.332Z,56.16
2022-09-23T08:39:48.430Z,57.47
2022-09-23T08:42:30.240Z,58.19
2022-09-23T08:45:03.884Z,57.38
2022-09-23T08:47:35.601Z,58.11
2022-09-23T08:50:07.674Z,58.31
2022-09-23T08:52:50.483Z,58.64
2022-09-23T08:55:24.716Z,59.68
2022-09-23T08:58:26.210Z,59.26
2022-09-23T09:01:04.750Z,58.63
2022-09-23T09:03:57.964Z,57.81
2022-09-23T09:06:36.224Z,58.70
2022-09-23T09:09:23.932Z,59.32
2022-09-23T09:12:00.582Z,59.53
2022-09-23T09:15:07.813Z,59.63
2022-09-23T09:18:03.356Z,59.60
2022-09-23T09:20:55.229Z,58.82
2022-09-23T09:23:28.730Z,58.92
2022-09-23T09:26:01.954Z,58.53
2022-09-23T09:28:36.147Z,58.97
2022-09-23T09:31:07.762Z,57.71
2022-09-23T09:34:03.640Z,56.80
2022-09-23T09:36:36.533Z,56.48
2022-09-23T09:39:05.429Z,57.90
2022-09-23T09:41:34.113Z,55.26
2022-09-23T09:44:09.791Z,56.63
2022-09-23T09:46:55.571Z,57.50
2022-09-23T09:49:28.868Z,57.83
2022-09-23T09:52:23.647Z,56.26
2022-09-23T09:54:56.313Z,55.84
2022-09-23T09:57:35.389Z,54.83
2022-09-23T10:00:44.888Z,55.01
2022-09-23T10:03:13.536Z,55.49
2022-09-23T10:05:49.698Z,53.40
2022-09-23T10:08:36.001Z,52.53
2022-09-23T10:11:16.363Z,54.25
2022-09-23T10:14:06.968Z,52.35
2022-09-23T10:16:35.448Z,53.26
2022-09-23T10:19:11.718Z,53.04
2022-09-23T10:21:42.481Z,51.24
2022-09-23T10:24:23.039Z,52.81
2022-09-23T10:26:58.369Z,52.19
2022-09-23T10:29:40.117Z,52.21
2022-09-23T10:32:26.780Z,50.88
2022-09-23T10:35:09.090Z,51.57
2022-09-23T10:37:46.065Z,51.01
2022-09-23T10:40:48.563Z,52.03
2022-09-23T10:43:41.641Z,50.83
2022-09-23T10:46:38.599Z,51.28
2022-09-23T10:49:09.417Z,50.92
2022-09-23T10:52:00.728Z,50.75
2022-09-23T10:54:47.443Z,50.00
2022-09-23T10:57:40.101Z,50.19
2022-09-23T11:00:23.675Z,48.04
2022-09-23T11:03:23.008Z,48.27
2022-09-23T11:06:07.933Z,48.68
2022-09-23T11:09:04.334Z,48.67
2022-09-23T11:11:52.960Z,47.87
2022-09-23T11:14:23.965Z,48.98
2022-09-23T11:17:06.009Z,49.44
2022-09-23T11:20:00.577Z,49.48
2022-09-23T11:22:37.914Z,49.39
2022-09-23T11:25:17.981Z,48.97
2022-09-23T11:27:52.991Z,47.68
2022-09-23T11:30:22.753Z,47.77
2022-09-23T11:32:57.476Z,48.03
2022-09-23T11:35:37.178Z,48.27
2022-09-23T11:38:11.963Z,47.15
2022-09-23T11:40:46.840Z,48.09
2022-09-23T11:43:24.408Z,47.83
2022-09-23T11:45:59.018Z,46.45
2022-09-23T11:48:35.012Z,45.72
2022-09-23T11:51:12.800Z,46.28
2022-09-23T11:53:47.148Z,46.05
2022-09-23T11:56:35.431Z,46.22
2022-09-23T11:59:40.276Z,46.68
2022-09-23T12:02:31.240Z,46.65
2022-09-23T12:05:11.269Z,46.26
2022-09-23T12:07:54.926Z,46.08
2022-09-23T12:10:38.500Z,45.90
2022-09-23T12:13:30.408Z,45.50
2022-09-23T12:16:23.652Z,45.09
2022-09-23T12:19:14.973Z,44.89
2022-09-23T12:21:51.586Z,44.94
2022-09-23T12:24:45.068Z,44.85
2022-09-23T12:27:45.997Z,45.02
2022-09-23T12:30:17.600Z,45.02
2022-09-23T12:32:47.065Z,44.18
2022-09-23T12:35:26.980Z,44.46
2022-09-23T12:37:56.412Z,45.09
2022-09-23T12:40:35.059Z,45.01
2022-09-23T12:43:03.726Z,44.86
2022-09-23T12:45:32.913Z,44.67
2022-09-23T12:48:06.023Z,44.51
2022-09-23T12:51:03.179Z,44.27
2022-09-23T12:53:34.536Z,45.27
2022-09-23T12:56:16.815Z,45.23
2022-09-23T12:58:45.121Z,44.68
2022-09-23T13:01:21.519Z,44.93
2022-09-23T13:04:10.812Z,44.67
2022-09-23T13:06:53.678Z,44.15
2022-09-23T13:09:29.121Z,44.46
2022-09-23T13:12:13.485Z,43.42
2022-09-23T13:14:47.031Z,44.08
2022-09-23T13:17:31.252Z,45.09
2022-09-23T13:20:25.634Z,44.80
2022-09-23T13:22:54.039Z,44.36
2022-09-23T13:25:24.444Z,43.80
2022-09-23T13:28:00.603Z,44.33
2022-09-23T13:30:30.007Z,44.86
2022-09-23T13:33:19.272Z,44.77
2022-09-23T13:35:53.413Z,45.07
2022-09-23T13:38:26.339Z,44.97
2022-09-23T13:40:59.469Z,44.63
2022-09-23T13:43:40.838Z,43.25
2022-09-23T13:46:18.548Z,43.81
2022-09-23T13:48:50.755Z,44.50
2022-09-23T13:51:33.467Z,44.82
2022-09-23T13:54:04.631Z,44.59
2022-09-23T13:56:35.443Z,44.16
2022-09-23T13:59:41.764Z,44.38
2022-09-23T14:02:17.009Z,44.61
2022-09-23T14:04:46.476Z,43.81
2022-09-23T14:07:17.014Z,43.83
2022-09-23T14:09:48.662Z,44.25
2022-09-23T14:12:22.704Z,43.98
2022-09-23T14:14:52.698Z,44.24
2022-09-23T14:17:25.372Z,44.36
2022-09-23T14:19:54.590Z,44.38
2022-09-23T14:22:27.777Z,44.34
2022-09-23T14:24:57.701Z,43.83
2022-09-23T14:27:32.480Z,43.39
2022-09-23T14:30:03.067Z,43.01
2022-09-23T14:32:33.267Z,43.39
2022-09-23T14:35:04.649Z,43.52
2022-09-23T14:37:56.170Z,43.44
2022-09-23T14:40:52.300Z,43.60
2022-09-23T14:43:25.287Z,42.95
2022-09-23T14:45:58.872Z,43.78
2022-09-23T14:48:32.500Z,44.37
2022-09-23T14:51:13.241Z,44.92
2022-09-23T14:53:46.606Z,44.92
2022-09-23T14:56:23.171Z,45.69
2022-09-23T14:59:00.128Z,45.47
2022-09-23T15:01:41.863Z,45.64
2022-09-23T15:04:31.100Z,45.51
2022-09-23T15:07:17.190Z,45.83
2022-09-23T15:09:45.990Z,46.13
2022-09-23T15:12:14.268Z,45.97
2022-09-23T15:14:51.367Z,47.50
2022-09-23T15:17:32.811Z,48.14
2022-09-23T15:20:18.119Z,48.06
2022-09-23T15:22:49.679Z,48.76
2022-09-23T15:25:28.409Z,48.74
2022-09-23T15:28:00.267Z,49.67
2022-09-23T15:30:29.582Z,49.87
2022-09-23T15:32:58.464Z,50.21
2022-09-23T15:35:28.518Z,51.07
2022-09-23T15:38:00.673Z,51.33
2022-09-23T15:40:32.731Z,51.21
2022-09-23T15:43:11.171Z,50.93
2022-09-23T15:45:44.893Z,50.84
2022-09-23T15:48:19.598Z,50.54
2022-09-23T15:50:49.710Z,50.44
2022-09-23T15:53:24.235Z,51.12
2022-09-23T15:55:52.924Z,50.95
2022-09-23T15:58:22.556Z,51.14
2022-09-23T16:00:56.197Z,51.87
2022-09-23T16:03:28.865Z,53.56
2022-09-23T16:06:03.467Z,54.35
2022-09-23T16:08:33.339Z,55.02
2022-09-23T16:11:01.854Z,55.07
2022-09-23T16:13:30.177Z,55.73
2022-09-23T16:15:58.615Z,55.49
2022-09-23T16:18:26.888Z,55.16
2022-09-23T16:20:55.375Z,55.85
2022-09-23T16:23:35.792Z,55.22
2022-09-23T16:26:22.165Z,54.67
2022-09-23T16:28:53.827Z,55.03
2022-09-23T16:31:25.752Z,55.64
2022-09-23T16:33:54.264Z,56.09
2022-09-23T16:36:29.022Z,56.01
2022-09-23T16:38:59.413Z,56.06
2022-09-23T16:41:32.105Z,56.32
2022-09-23T16:44:04.668Z,57.24
2022-09-23T16:46:34.599Z,58.33
2022-09-23T16:49:04.253Z,58.75
2022-09-23T16:51:38.861Z,59.18
2022-09-23T16:54:12.444Z,59.88
2022-09-23T16:56:47.158Z,60.64
2022-09-23T16:59:17.132Z,64.49
2022-09-23T17:02:04.401Z,67.29
2022-09-23T17:04:33.117Z,66.96
2022-09-23T17:07:04.250Z,62.60
2022-09-23T17:09:32.394Z,58.70
2022-09-23T17:12:13.916Z,56.85
2022-09-23T17:14:44.315Z,56.35
2022-09-23T17:17:14.369Z,56.27
2022-09-23T17:19:43.271Z,56.60
2022-09-23T17:22:12.088Z,57.22
2022-09-23T17:24:41.175Z,57.74
2022-09-23T17:27:09.958Z,58.10
2022-09-23T17:29:39.088Z,58.91
2022-09-23T17:32:09.701Z,59.17
2022-09-23T17:34:38.176Z,59.35
2022-09-23T17:37:06.656Z,60.08
2022-09-23T17:39:35.135Z,60.36
2022-09-23T17:42:03.717Z,60.85
2022-09-23T17:44:33.539Z,64.42
2022-09-23T17:47:06.374Z,66.51
2022-09-23T17:49:35.534Z,64.51
2022-09-23T17:52:05.857Z,63.54
2022-09-23T17:54:36.581Z,61.77
2022-09-23T17:57:05.072Z,58.16
2022-09-23T17:59:33.562Z,56.09
2022-09-23T18:02:02.210Z,56.06
2022-09-23T18:04:31.246Z,56.53
2022-09-23T18:06:59.738Z,57.72
2022-09-23T18:09:30.649Z,58.31
2022-09-23T18:11:59.471Z,59.10
2022-09-23T18:14:29.177Z,59.66
2022-09-23T18:16:58.408Z,59.91
2022-09-23T18:19:29.570Z,60.18
2022-09-23T18:22:01.799Z,60.91
2022-09-23T18:24:33.801Z,64.56
2022-09-23T18:27:06.570Z,67.03
2022-09-23T18:29:36.089Z,63.75
2022-09-23T18:32:06.047Z,60.73
2022-09-23T18:34:38.778Z,56.92
2022-09-23T18:37:15.745Z,55.38
2022-09-23T18:39:50.353Z,56.10
2022-09-23T18:42:24.881Z,56.86
2022-09-23T18:44:58.483Z,57.81
2022-09-23T18:47:51.753Z,58.85
2022-09-23T18:50:42.776Z,59.14
2022-09-23T18:53:15.528Z,59.64
2022-09-23T18:55:51.378Z,60.29
2022-09-23T18:58:22.677Z,64.14
2022-09-23T19:00:52.320Z,67.38
2022-09-23T19:03:26.111Z,63.95
2022-09-23T19:06:10.931Z,58.61
2022-09-23T19:08:45.774Z,56.50
2022-09-23T19:11:16.458Z,57.04
2022-09-23T19:13:46.454Z,58.52
2022-09-23T19:16:16.827Z,59.49
2022-09-23T19:18:49.491Z,60.23
2022-09-23T19:21:21.646Z,60.61
2022-09-23T19:23:57.115Z,65.11
2022-09-23T19:26:33.163Z,66.73
2022-09-23T19:29:13.984Z,62.41
2022-09-23T19:31:44.097Z,57.47
2022-09-23T19:34:15.593Z,56.48
2022-09-23T19:36:46.201Z,57.23
2022-09-23T19:39:21.435Z,58.47
2022-09-23T19:41:56.522Z,59.07
2022-09-23T19:44:30.199Z,59.56
2022-09-23T19:47:02.122Z,60.60
2022-09-23T19:49:32.826Z,64.37
2022-09-23T19:52:04.279Z,67.24
2022-09-23T19:54:39.210Z,63.31
2022-09-23T19:57:10.411Z,58.46
2022-09-23T19:59:45.863Z,56.76
2022-09-23T20:02:19.409Z,57.37
2022-09-23T20:04:48.714Z,58.60
2022-09-23T20:07:21.418Z,59.30
2022-09-23T20:09:53.313Z,60.52
2022-09-23T20:12:28.900Z,65.40
2022-09-23T20:15:02.677Z,66.85
2022-09-23T20:17:33.064Z,62.54
2022-09-23T20:20:02.923Z,57.45
2022-09-23T20:22:35.985Z,56.22
2022-09-23T20:25:13.791Z,57.13
2022-09-23T20:27:53.618Z,57.79
2022-09-23T20:30:24.103Z,58.67
2022-09-23T20:32:59.134Z,59.49
2022-09-23T20:35:34.498Z,60.24
2022-09-23T20:38:08.248Z,65.70
2022-09-23T20:40:42.298Z,66.59
2022-09-23T20:43:16.687Z,61.78
2022-09-23T20:45:55.110Z,56.89
2022-09-23T20:48:26.287Z,55.77
2022-09-23T20:51:03.708Z,56.87
2022-09-23T20:53:32.812Z,58.42
2022-09-23T20:56:02.018Z,59.26
2022-09-23T20:58:36.610Z,59.80
2022-09-23T21:01:12.041Z,60.41
2022-09-23T21:03:44.083Z,66.18
2022-09-23T21:06:14.785Z,67.12
2022-09-23T21:08:46.675Z,61.86
2022-09-23T21:11:18.203Z,59.03
2022-09-23T21:13:48.743Z,58.13
2022-09-23T21:16:21.626Z,59.03
2022-09-23T21:18:52.365Z,60.21
2022-09-23T21:21:22.686Z,64.18
2022-09-23T21:23:51.392Z,67.10
2022-09-23T21:26:25.302Z,62.69
2022-09-23T21:29:01.258Z,57.15
2022-09-23T21:31:38.939Z,55.93
2022-09-23T21:34:11.471Z,56.88
2022-09-23T21:36:43.739Z,58.65
2022-09-23T21:39:15.471Z,58.38
2022-09-23T21:41:47.171Z,59.12
2022-09-23T21:44:17.723Z,59.91
2022-09-23T21:46:48.693Z,63.92
2022-09-23T21:49:17.492Z,66.58
2022-09-23T21:51:45.987Z,64.93
2022-09-23T21:54:17.029Z,63.15
2022-09-23T21:56:45.610Z,61.26
2022-09-23T21:59:14.087Z,57.07
2022-09-23T22:01:45.572Z,55.76
2022-09-23T22:04:18.388Z,56.83
2022-09-23T22:06:49.159Z,57.79
2022-09-23T22:09:20.324Z,59.08
2022-09-23T22:12:09.983Z,60.08
2022-09-23T22:14:39.818Z,64.39
2022-09-23T22:17:10.742Z,66.82
2022-09-23T22:19:45.970Z,64.18
2022-09-23T22:22:17.986Z,60.49
2022-09-23T22:24:48.429Z,56.53
2022-09-23T22:27:19.250Z,55.99
2022-09-23T22:30:06.575Z,57.18
2022-09-23T22:32:41.706Z,58.21
2022-09-23T22:35:20.299Z,59.35
2022-09-23T22:37:50.035Z,60.02
2022-09-23T22:40:18.852Z,65.32
2022-09-23T22:42:49.975Z,66.96
2022-09-23T22:45:18.589Z,61.53
2022-09-23T22:47:46.945Z,56.43
2022-09-23T22:50:18.600Z,55.73
2022-09-23T22:52:47.697Z,56.31
2022-09-23T22:55:16.110Z,57.44
2022-09-23T22:57:44.255Z,58.70
2022-09-23T23:00:12.937Z,59.50
2022-09-23T23:02:42.627Z,60.23
2022-09-23T23:05:11.670Z,65.41
2022-09-23T23:07:40.748Z,67.83
2022-09-23T23:10:10.509Z,63.54
2022-09-23T23:12:39.779Z,60.03
2022-09-23T23:15:11.959Z,56.36
2022-09-23T23:17:41.829Z,55.97
2022-09-23T23:20:10.854Z,57.16
2022-09-23T23:22:45.506Z,58.88
2022-09-23T23:25:14.068Z,60.14
2022-09-23T23:27:42.659Z,63.89
2022-09-23T23:30:11.656Z,66.00
2022-09-23T23:32:40.392Z,64.18
2022-09-23T23:35:12.025Z,60.72
2022-09-23T23:37:41.917Z,57.47
2022-09-23T23:40:10.934Z,56.60
2022-09-23T23:42:39.414Z,57.90
2022-09-23T23:45:08.568Z,58.94
2022-09-23T23:47:37.667Z,59.83
2022-09-23T23:50:06.592Z,60.39
2022-09-23T23:52:35.075Z,64.25
2022-09-23T23:55:03.865Z,66.62
2022-09-23T23:57:35.010Z,65.55
